LGKO/KGS METAR and TAF weather

Enter ICAO airport designator
Station Type Date Time Source
LGKO METAR 2021/03/07 23:20 UTC NOAA

LGKO 072320Z 35008KT 9999 FEW020 12/04 Q1018


Station Type Date Time Source
LGKO Decoded METAR 2021/03/07 23:20 UTC NOAA

Kos Airport , Greece (LGKO) 36-47N 027-04E
Mar 07, 2021 - 06:20 PM EST / 2021.03.07 2320 UTC
Wind: from the N (350 degrees) at 9 MPH (8 KT):0
Visibility: greater than 7 mile(s):0
Sky conditions: mostly clear
Temperature: 53 F (12 C)
Dew Point: 39 F (4 C)
Relative Humidity: 57%
Pressure (altimeter): 30.06 in. Hg (1018 hPa)
ob: LGKO 072320Z 35008KT 9999 FEW020 12/04 Q1018
cycle: 23

Station Type Date Time Source
LGKO TAF 2021/03/07 18:12 UTC NOAA

TAF LGKO 071700Z 0718/0818 35016KT 9999 SCT018
TEMPO 0718/0804 35018G28KT

Example: see airport list